Time;durP1;ratioP1;P1;durP2;ratioP2;P2;SDS_P1;SDS_P2;PMS_P1;PMS_P2;Temp;Humidity;BMP_temperature;BMP_pressure;BME280_temperature;BME280_humidity;BME280_pressure;Samples;Min_cycle;Max_cycle;Signal;HPM_P1;HPM_P2
2022/12/01 00:07:59;;;;;;;22.17;10.02;;;;;;;5.12;100.00;101023.56;21071076;28;20109;-72
2022/12/01 00:18:01;;;;;;;27.85;12.20;;;;;;;5.05;100.00;101015.69;21070271;28;20048;-69
2022/12/01 00:28:02;;;;;;;28.95;11.95;;;;;;;4.97;100.00;101022.44;21069747;28;20101;-70
2022/12/01 00:38:03;;;;;;;29.50;13.40;;;;;;;4.90;100.00;101034.47;21071163;28;20060;-76
2022/12/01 00:48:05;;;;;;;34.25;14.15;;;;;;;5.00;100.00;101028.56;21069800;28;20520;-71
2022/12/01 00:58:06;;;;;;;31.92;13.75;;;;;;;4.82;100.00;101034.31;21065941;28;20062;-70
2022/12/01 01:08:07;;;;;;;35.60;14.93;;;;;;;4.97;100.00;101035.44;21065626;28;20054;-75
2022/12/01 01:18:09;;;;;;;40.15;16.08;;;;;;;4.80;100.00;101041.22;21064906;28;20052;-77
2022/12/01 01:28:10;;;;;;;32.13;15.05;;;;;;;4.73;100.00;101054.91;21065610;28;20476;-74
2022/12/01 01:38:11;;;;;;;33.50;16.13;;;;;;;4.68;100.00;101061.72;21063817;28;20048;-71
2022/12/01 01:48:13;;;;;;;34.97;15.20;;;;;;;4.66;100.00;101066.03;21063462;28;20077;-70
2022/12/01 01:58:14;;;;;;;35.78;16.25;;;;;;;4.72;100.00;101068.72;21059774;28;20048;-73
2022/12/01 02:08:15;;;;;;;37.97;16.60;;;;;;;4.61;100.00;101065.06;21061852;28;20549;-72
2022/12/01 02:18:17;;;;;;;37.90;17.52;;;;;;;4.59;100.00;101057.22;21061658;28;20481;-72
2022/12/01 02:28:18;;;;;;;34.08;16.17;;;;;;;4.48;100.00;101050.09;21060678;28;20047;-78
2022/12/01 02:38:19;;;;;;;37.13;18.00;;;;;;;4.51;100.00;101047.56;21059430;28;20121;-71
2022/12/01 02:48:21;;;;;;;37.88;17.05;;;;;;;4.60;100.00;101042.56;21060029;28;20121;-72
2022/12/01 02:58:22;;;;;;;35.65;16.58;;;;;;;4.43;100.00;101049.13;21058667;28;20048;-75
2022/12/01 03:08:23;;;;;;;36.63;18.00;;;;;;;4.32;100.00;101035.97;21056441;28;20056;-71
2022/12/01 03:18:25;;;;;;;36.35;17.52;;;;;;;4.41;100.00;101035.25;21057009;28;20055;-73
2022/12/01 03:28:27;;;;;;;37.08;17.52;;;;;;;4.38;100.00;101036.09;21057355;28;20715;-74
2022/12/01 03:38:29;;;;;;;32.92;16.05;;;;;;;4.28;100.00;101039.34;21055179;28;20110;-73
2022/12/01 03:48:30;;;;;;;28.30;13.27;;;;;;;4.25;100.00;101034.94;21056203;28;20060;-72
2022/12/01 03:58:33;;;;;;;26.15;13.05;;;;;;;4.16;100.00;101039.06;21054760;28;20056;-71
2022/12/01 04:08:36;;;;;;;26.58;11.65;;;;;;;4.03;100.00;101045.75;21054155;28;20063;-72
2022/12/01 04:18:37;;;;;;;26.35;12.30;;;;;;;4.06;100.00;101048.38;21054251;28;20044;-73
2022/12/01 04:28:38;;;;;;;26.63;13.25;;;;;;;3.97;100.00;101046.47;21053972;28;20075;-72
2022/12/01 04:38:40;;;;;;;28.80;13.95;;;;;;;3.97;100.00;101050.78;21053666;28;20522;-71
2022/12/01 04:48:42;;;;;;;31.02;14.02;;;;;;;4.08;100.00;101057.94;21060353;28;20048;-70
2022/12/01 04:58:43;;;;;;;29.90;14.35;;;;;;;3.90;100.00;101046.31;21068098;28;20063;-75
2022/12/01 05:08:45;;;;;;;31.95;15.30;;;;;;;3.97;100.00;101049.06;21066518;28;20511;-70
2022/12/01 05:18:46;;;;;;;32.05;14.52;;;;;;;3.85;100.00;101062.63;21065181;28;20493;-72
2022/12/01 05:28:47;;;;;;;30.58;14.25;;;;;;;3.85;100.00;101066.94;21064407;28;20052;-68
2022/12/01 05:38:49;;;;;;;25.42;12.93;;;;;;;3.81;100.00;101070.28;21060815;28;20052;-69
2022/12/01 05:48:50;;;;;;;28.58;13.63;;;;;;;3.89;100.00;101075.66;21062834;28;20105;-69
2022/12/01 05:58:51;;;;;;;27.80;13.38;;;;;;;3.96;100.00;101074.94;21061986;28;20139;-69
2022/12/01 06:08:52;;;;;;;26.92;13.18;;;;;;;3.99;100.00;101060.34;21061184;28;20055;-68
2022/12/01 06:18:54;;;;;;;25.13;12.43;;;;;;;3.91;100.00;101073.97;21061238;28;20561;-68
2022/12/01 06:28:55;;;;;;;25.70;12.27;;;;;;;3.91;100.00;101074.84;21042128;28;20048;-69
2022/12/01 06:38:56;;;;;;;30.50;14.00;;;;;;;3.94;100.00;101080.09;21059250;28;20059;-69
2022/12/01 06:48:58;;;;;;;28.88;13.65;;;;;;;4.00;100.00;101090.59;21060001;28;20098;-68
2022/12/01 06:58:59;;;;;;;27.35;13.45;;;;;;;4.13;100.00;101107.28;21058121;28;20048;-68
2022/12/01 07:09:00;;;;;;;23.90;12.38;;;;;;;4.15;100.00;101105.59;21055895;28;20056;-69
2022/12/01 07:19:02;;;;;;;20.17;10.32;;;;;;;4.14;100.00;101114.22;21057446;28;20078;-70
2022/12/01 07:29:03;;;;;;;21.27;9.75;;;;;;;3.96;100.00;101112.06;21054177;28;20060;-69
2022/12/01 07:39:05;;;;;;;20.67;9.68;;;;;;;4.04;100.00;101118.31;21052948;28;20071;-71
2022/12/01 07:49:06;;;;;;;21.25;10.38;;;;;;;4.15;100.00;101125.44;21052615;28;20056;-71
2022/12/01 07:59:08;;;;;;;20.75;10.88;;;;;;;4.17;100.00;101121.16;21032509;28;20117;-74
2022/12/01 08:09:09;;;;;;;26.38;13.50;;;;;;;4.05;100.00;101129.56;21050704;28;20097;-72
2022/12/01 08:19:10;;;;;;;24.67;12.43;;;;;;;4.11;100.00;101129.69;21052200;28;20505;-69
2022/12/01 08:29:12;;;;;;;24.25;12.07;;;;;;;4.16;100.00;101132.38;21068045;28;20445;-69
2022/12/01 08:39:20;;;;;;;23.95;11.70;;;;;;;4.16;100.00;101141.03;21064243;28;20422;-69
2022/12/01 08:49:21;;;;;;;23.90;12.18;;;;;;;4.15;100.00;101141.88;21065473;28;20060;-69
2022/12/01 08:59:23;;;;;;;27.95;13.25;;;;;;;4.19;100.00;101148.00;21066561;28;20185;-69
2022/12/01 09:09:24;;;;;;;24.60;12.18;;;;;;;4.26;100.00;101150.75;21063263;28;20457;-69
2022/12/01 09:19:27;;;;;;;31.75;14.48;;;;;;;4.30;100.00;101152.56;21064154;28;20063;-69
2022/12/01 09:29:28;;;;;;;26.77;12.88;;;;;;;4.27;100.00;101162.03;21061934;28;20467;-70
2022/12/01 09:39:29;;;;;;;24.77;11.98;;;;;;;4.19;100.00;101164.44;21060659;28;20485;-69
2022/12/01 09:49:31;;;;;;;26.27;11.80;;;;;;;4.23;100.00;101158.47;21061306;28;20048;-69
2022/12/01 09:59:32;;;;;;;26.75;12.30;;;;;;;4.22;100.00;101154.16;21060302;28;20056;-69
2022/12/01 10:09:33;;;;;;;23.20;11.52;;;;;;;4.25;100.00;101146.41;21061950;28;20566;-69
2022/12/01 10:19:34;;;;;;;26.15;12.13;;;;;;;4.36;100.00;101134.56;21072069;28;20078;-69
2022/12/01 10:29:36;;;;;;;27.38;12.48;;;;;;;4.41;100.00;101111.34;21071404;28;20077;-69
2022/12/01 10:39:37;;;;;;;22.73;11.70;;;;;;;4.45;100.00;101100.16;21068613;28;20102;-69
2022/12/01 10:49:38;;;;;;;25.42;12.15;;;;;;;4.50;100.00;101095.06;21069138;28;20546;-68
2022/12/01 10:59:39;;;;;;;24.60;12.60;;;;;;;4.43;100.00;101090.63;21068344;28;20064;-68
2022/12/01 11:09:41;;;;;;;29.02;13.00;;;;;;;4.53;100.00;101072.69;21067223;28;20055;-69
2022/12/01 11:19:42;;;;;;;30.27;14.45;;;;;;;4.59;100.00;101077.09;21066833;28;20497;-69
2022/12/01 11:29:45;;;;;;;25.85;12.73;;;;;;;4.30;100.00;101073.94;21066737;28;20056;-69
2022/12/01 11:39:46;;;;;;;35.70;16.42;;;;;;;4.48;100.00;101052.69;21064870;28;20496;-69
2022/12/01 11:49:48;;;;;;;24.20;11.43;;;;;;;4.62;100.00;101056.44;21065159;28;20052;-70
2022/12/01 11:59:50;;;;;;;23.98;12.13;;;;;;;4.58;100.00;101049.44;21074542;28;20106;-69
2022/12/01 12:09:52;;;;;;;26.38;12.65;;;;;;;4.59;100.00;101051.16;21081357;28;20125;-70
2022/12/01 12:19:53;;;;;;;25.75;11.35;;;;;;;4.54;100.00;101052.81;21081345;28;20488;-69
2022/12/01 12:30:11;;;;;;;27.45;13.32;;;;;;;4.51;100.00;101055.34;21075750;28;20063;-72
2022/12/01 12:40:12;;;;;;;25.13;12.02;;;;;;;4.63;100.00;101043.47;21064218;28;20492;-74
2022/12/01 12:50:14;;;;;;;24.02;11.82;;;;;;;4.68;100.00;101053.06;21079953;28;20052;-75
2022/12/01 13:00:15;;;;;;;29.80;14.10;;;;;;;4.78;100.00;101042.88;21079664;28;20482;-75
2022/12/01 13:10:16;;;;;;;27.63;13.27;;;;;;;4.60;100.00;101033.06;21076732;28;20393;-72
2022/12/01 13:20:18;;;;;;;27.38;12.77;;;;;;;4.73;100.00;101030.69;21074792;28;20052;-72
2022/12/01 13:30:19;;;;;;;24.80;12.43;;;;;;;4.94;100.00;101033.66;21072245;22;20504;-78
2022/12/01 13:40:20;;;;;;;26.17;12.60;;;;;;;4.58;100.00;101024.38;21051048;23;20106;-66
2022/12/01 13:50:21;;;;;;;27.10;13.35;;;;;;;4.83;100.00;101025.69;21165162;22;20062;-74
2022/12/01 14:00:23;;;;;;;24.95;12.10;;;;;;;4.51;100.00;101003.50;21158269;28;20506;-73
2022/12/01 14:10:24;;;;;;;31.40;14.32;;;;;;;4.61;100.00;101008.00;21157251;28;20353;-73
2022/12/01 14:20:26;;;;;;;28.90;13.52;;;;;;;4.51;100.00;101006.97;21156812;28;20051;-73
2022/12/01 14:30:27;;;;;;;26.02;12.63;;;;;;;4.38;100.00;101004.97;21155926;28;20047;-72
2022/12/01 14:40:29;;;;;;;35.92;18.27;;;;;;;4.46;100.00;101006.00;21154637;28;20052;-72
2022/12/01 14:50:30;;;;;;;29.95;13.82;;;;;;;4.42;100.00;101005.91;21145661;28;20105;-74
2022/12/01 15:00:31;;;;;;;26.73;12.23;;;;;;;4.42;100.00;101011.97;21068564;28;20044;-75
2022/12/01 15:10:36;;;;;;;28.75;13.63;;;;;;;4.53;100.00;101004.38;20989721;28;20555;-76
2022/12/01 15:20:37;;;;;;;36.78;16.52;;;;;;;4.52;100.00;100997.44;21015263;28;20056;-75
2022/12/01 15:30:46;;;;;;;32.03;15.55;;;;;;;4.32;100.00;101004.88;21064459;28;20048;-74
2022/12/01 15:40:47;;;;;;;28.38;12.98;;;;;;;4.29;100.00;101008.25;21062468;28;20055;-75
2022/12/01 15:51:09;;;;;;;32.45;13.98;;;;;;;4.36;100.00;101006.69;21077993;28;20043;-72
2022/12/01 16:01:10;;;;;;;32.20;12.98;;;;;;;4.41;100.00;101009.31;21145881;28;20047;-72
2022/12/01 16:11:12;;;;;;;27.25;12.20;;;;;;;4.28;100.00;101011.69;21145671;28;20047;-71
2022/12/01 16:21:13;;;;;;;32.10;14.82;;;;;;;4.25;100.00;101008.16;21144514;28;20140;-71
2022/12/01 16:31:14;;;;;;;32.97;15.43;;;;;;;4.31;100.00;101009.19;21143431;28;20040;-71
2022/12/01 16:41:16;;;;;;;36.45;16.35;;;;;;;4.24;100.00;101002.09;21147553;28;20047;-72
2022/12/01 16:51:17;;;;;;;33.47;15.32;;;;;;;4.22;100.00;101001.22;21160056;28;20104;-72
2022/12/01 17:01:30;;;;;;;53.42;22.05;;;;;;;4.24;100.00;101011.59;21155120;28;20400;-72
2022/12/01 17:11:31;;;;;;;35.90;16.50;;;;;;;4.19;100.00;101008.91;21151525;28;20052;-71
2022/12/01 17:21:32;;;;;;;38.38;18.35;;;;;;;4.11;100.00;101021.72;21152312;28;20109;-71
2022/12/01 17:31:34;;;;;;;41.55;17.63;;;;;;;4.13;100.00;101024.34;21150845;28;20055;-72
2022/12/01 17:41:35;;;;;;;44.58;19.90;;;;;;;4.15;100.00;101035.63;21149892;28;20499;-72
2022/12/01 17:51:37;;;;;;;45.85;21.15;;;;;;;4.10;100.00;101029.47;21147216;28;20147;-72
2022/12/01 18:01:39;;;;;;;46.97;19.85;;;;;;;4.03;100.00;101037.97;21145710;28;20047;-72
2022/12/01 18:11:41;;;;;;;48.33;21.75;;;;;;;4.05;100.00;101033.69;21143006;28;20091;-73
2022/12/01 18:21:42;;;;;;;44.92;20.30;;;;;;;4.08;100.00;101031.16;21142468;28;20062;-72
2022/12/01 18:31:44;;;;;;;47.33;20.52;;;;;;;4.11;100.00;101026.91;21127290;28;20097;-72
2022/12/01 18:41:45;;;;;;;47.58;19.75;;;;;;;3.96;100.00;101020.53;21145149;28;20146;-72
2022/12/01 18:51:47;;;;;;;46.15;21.95;;;;;;;4.04;100.00;101008.63;21143785;28;20058;-74
2022/12/01 19:01:48;;;;;;;44.67;19.45;;;;;;;4.05;100.00;101010.34;21144783;28;20055;-74
2022/12/01 19:11:58;;;;;;;44.40;19.83;;;;;;;3.99;100.00;100992.09;21142684;28;20065;-74
2022/12/01 19:21:59;;;;;;;54.10;23.50;;;;;;;3.96;100.00;100990.31;21143352;28;20514;-74
2022/12/01 19:32:01;;;;;;;45.40;19.88;;;;;;;3.91;100.00;101001.44;21142350;28;20064;-74
2022/12/01 19:42:02;;;;;;;45.97;20.60;;;;;;;3.92;100.00;101003.16;21142248;28;20101;-74
2022/12/01 19:52:05;;;;;;;44.40;20.33;;;;;;;3.95;100.00;100995.47;21141025;28;20052;-74
2022/12/01 20:02:06;;;;;;;50.67;22.08;;;;;;;3.86;100.00;101007.38;21139834;28;20051;-75
2022/12/01 20:22:45;;;;;;;50.10;21.92;;;;;;;3.84;100.00;101003.91;21016206;28;20040;-72
2022/12/01 20:32:46;;;;;;;50.22;21.42;;;;;;;3.89;100.00;100988.44;20989169;28;20467;-72
2022/12/01 20:42:48;;;;;;;51.33;21.38;;;;;;;3.91;100.00;101001.44;20985599;28;20064;-72
2022/12/01 20:52:49;;;;;;;47.83;20.48;;;;;;;3.98;100.00;100992.94;20986938;28;20052;-73
2022/12/01 21:02:50;;;;;;;49.70;21.48;;;;;;;3.89;100.00;100985.00;20985095;28;20134;-73
2022/12/01 21:23:12;;;;;;;57.05;22.77;;;;;;;3.90;100.00;100978.97;21068966;28;20475;-73
2022/12/01 21:33:13;;;;;;;55.33;23.27;;;;;;;3.90;100.00;100981.56;21065749;28;20056;-73
2022/12/01 21:43:14;;;;;;;50.08;21.63;;;;;;;3.91;100.00;100991.06;21067489;28;20420;-73
2022/12/01 21:53:16;;;;;;;52.50;21.92;;;;;;;3.94;100.00;100991.13;21066083;28;20139;-72
2022/12/01 22:03:17;;;;;;;58.17;23.80;;;;;;;3.88;100.00;100983.22;21063599;28;20272;-72
2022/12/01 22:13:18;;;;;;;52.08;22.25;;;;;;;3.86;100.00;100978.88;21033058;28;20060;-72
2022/12/01 22:23:20;;;;;;;54.85;23.45;;;;;;;3.83;100.00;100972.75;21036879;28;20056;-72
2022/12/01 22:33:21;;;;;;;53.92;22.75;;;;;;;3.74;100.00;100963.09;21062149;28;20423;-71
2022/12/01 22:43:22;;;;;;;61.92;24.50;;;;;;;3.74;100.00;100977.78;21061399;28;20048;-71
2022/12/01 22:53:23;;;;;;;61.72;23.95;;;;;;;3.68;100.00;100962.94;21059190;28;20060;-71
2022/12/01 23:03:25;;;;;;;67.38;25.80;;;;;;;3.69;100.00;100956.06;21063550;28;20392;-71
2022/12/01 23:13:26;;;;;;;59.47;25.33;;;;;;;3.67;100.00;100953.44;21069173;28;20323;-71
2022/12/01 23:23:27;;;;;;;58.55;23.48;;;;;;;3.66;100.00;100953.41;21072272;28;20055;-72
2022/12/01 23:33:29;;;;;;;59.83;24.73;;;;;;;3.70;100.00;100944.88;21071776;28;20048;-72
2022/12/01 23:43:30;;;;;;;54.75;21.90;;;;;;;3.66;100.00;100938.75;21069060;28;20473;-71
2022/12/01 23:53:31;;;;;;;52.75;22.20;;;;;;;3.73;100.00;100924.22;21076559;28;20051;-72
